Wawasan Ruby — 3EVU7 — position and weather

sailwx.info

Track history (hours):
 
Tides and Currents Weather Stations Pressure Air Temp Water Temp Dewpoint Dewpoint Depression Visibility Wind Speed Wind Dir Waves Ship Positions

Wawasan Ruby

Last reported at 2015-Mar-06 12:09 UTC. Time now 2015-Mar-06 12:42 UTC.
Position N 32°01' E 120°33'.

Length 146 m; draft 9.8 m.

Type: Tanker. MMSI: 355619000.

Date/timePositionNaut miles runAvg speedWind from/ knotsBaromVisibWave heightAir tempDewpointWater temp
2015-Mar-06 12:09N 32°01' E 120°33'0 0.0
2015-Mar-06 11:32N 32°01' E 120°33'0 0.1
2015-Mar-06 10:20N 32°01' E 120°33'0 0.1
2015-Mar-06 09:20N 32°01' E 120°33'0 0.0
2015-Mar-06 07:32N 32°01' E 120°33'0 0.1
2015-Mar-06 06:32N 32°01' E 120°33'1 0.2
2015-Mar-06 03:33N 32°01' E 120°34'8 8.3
2015-Mar-06 02:33N 32°00' E 120°44'8 8.1
2015-Mar-06 01:32N 31°56' E 120°52'9 9.5
2015-Mar-06 00:33N 31°48' E 120°56'9 8.9
2015-Mar-05 23:32N 31°45' E 121°06'9 9.2
2015-Mar-05 22:33N 31°39' E 121°14'7 6.7
2015-Mar-05 21:33N 31°34' E 121°20'0 0.0
2015-Mar-05 20:31N 31°34' E 121°20'0 0.1
2015-Mar-05 19:31N 31°34' E 121°20'0 0.1
2015-Mar-05 18:31N 31°34' E 121°20'0 0.0
2015-Mar-05 17:31N 31°34' E 121°20'0 0.0
2015-Mar-05 16:31N 31°34' E 121°20'0 0.1
2015-Mar-05 15:31N 31°34' E 121°20'0 0.1
2015-Mar-05 14:31N 31°34' E 121°20'0 0.1
2015-Mar-05 13:31N 31°34' E 121°20'0 0.0
2015-Mar-05 12:31N 31°34' E 121°20'0 0.1
2015-Mar-05 11:31N 31°34' E 121°20'0 0.0
2015-Mar-05 10:31N 31°34' E 121°20'0 0.0
2015-Mar-05 09:31N 31°34' E 121°20'0 0.1
2015-Mar-05 08:33N 31°34' E 121°20'8 7.7
2015-Mar-05 07:33N 31°29' E 121°27'7 7.4
2015-Mar-05 06:34N 31°24' E 121°33'8 8.4
2015-Mar-05 05:34N 31°20' E 121°42'1010.2
2015-Mar-05 04:34N 31°16' E 121°53'1111.2
2015-Mar-05 03:34N 31°14' E 122°05'1212.1
2015-Mar-05 02:34N 31°07' E 122°17'1010.2
2015-Mar-05 01:34N 31°07' E 122°29'  
2015-Feb-24 22:31N 01°16' E 104°11'1111.2
2015-Feb-24 21:33N 01°14' E 104°01'12 9.7
2015-Feb-24 20:19N 01°10' E 103°49'  
Track history (hours):
 
Tides and Currents Weather Stations Pressure Air Temp Water Temp Dewpoint Dewpoint Depression Visibility Wind Speed Wind Dir Waves Ship Positions

Wawasan Ruby

Last reported at 2015-Mar-06 12:09 UTC. Time now 2015-Mar-06 12:42 UTC.
Position N 32°01' E 120°33'.

Length 146 m; draft 9.8 m.

Type: Tanker. MMSI: 355619000.

Date/timePositionNaut miles runAvg speedWind from/ knotsBaromVisibWave heightAir tempDewpointWater temp
2015-Mar-06 12:09N 32°01' E 120°33'0 0.0
2015-Mar-06 11:32N 32°01' E 120°33'0 0.1
2015-Mar-06 10:20N 32°01' E 120°33'0 0.1
2015-Mar-06 09:20N 32°01' E 120°33'0 0.0
2015-Mar-06 07:32N 32°01' E 120°33'0 0.1
2015-Mar-06 06:32N 32°01' E 120°33'1 0.2
2015-Mar-06 03:33N 32°01' E 120°34'8 8.3
2015-Mar-06 02:33N 32°00' E 120°44'8 8.1
2015-Mar-06 01:32N 31°56' E 120°52'9 9.5
2015-Mar-06 00:33N 31°48' E 120°56'9 8.9
2015-Mar-05 23:32N 31°45' E 121°06'9 9.2
2015-Mar-05 22:33N 31°39' E 121°14'7 6.7
2015-Mar-05 21:33N 31°34' E 121°20'0 0.0
2015-Mar-05 20:31N 31°34' E 121°20'0 0.1
2015-Mar-05 19:31N 31°34' E 121°20'0 0.1
2015-Mar-05 18:31N 31°34' E 121°20'0 0.0
2015-Mar-05 17:31N 31°34' E 121°20'0 0.0
2015-Mar-05 16:31N 31°34' E 121°20'0 0.1
2015-Mar-05 15:31N 31°34' E 121°20'0 0.1
2015-Mar-05 14:31N 31°34' E 121°20'0 0.1
2015-Mar-05 13:31N 31°34' E 121°20'0 0.0
2015-Mar-05 12:31N 31°34' E 121°20'0 0.1
2015-Mar-05 11:31N 31°34' E 121°20'0 0.0
2015-Mar-05 10:31N 31°34' E 121°20'0 0.0
2015-Mar-05 09:31N 31°34' E 121°20'0 0.1
2015-Mar-05 08:33N 31°34' E 121°20'8 7.7
2015-Mar-05 07:33N 31°29' E 121°27'7 7.4
2015-Mar-05 06:34N 31°24' E 121°33'8 8.4
2015-Mar-05 05:34N 31°20' E 121°42'1010.2
2015-Mar-05 04:34N 31°16' E 121°53'1111.2
2015-Mar-05 03:34N 31°14' E 122°05'1212.1
2015-Mar-05 02:34N 31°07' E 122°17'1010.2
2015-Mar-05 01:34N 31°07' E 122°29'  
2015-Feb-24 22:31N 01°16' E 104°11'1111.2
2015-Feb-24 21:33N 01°14' E 104°01'12 9.7
2015-Feb-24 20:19N 01°10' E 103°49'  

Dump ship's entire track history